Time;durP1;ratioP1;P1;durP2;ratioP2;P2;SDS_P1;SDS_P2;PMS_P1;PMS_P2;Temp;Humidity;BMP_temperature;BMP_pressure;BME280_temperature;BME280_humidity;BME280_pressure;Samples;Min_cycle;Max_cycle;Signal;HPM_P1;HPM_P2
2022/01/13 00:00:20;;;;;;;7.07;5.00;;;1.70;99.90;;;;;;10354907;28;20198;-82
2022/01/13 00:05:43;;;;;;;8.03;5.07;;;1.80;99.90;;;;;;10327720;28;20268;-79
2022/01/13 00:11:05;;;;;;;9.13;5.33;;;1.80;99.90;;;;;;10354259;28;20205;-82
2022/01/13 00:16:40;;;;;;;8.93;5.60;;;1.90;99.90;;;;;;10341300;28;20198;-80
2022/01/13 00:22:38;;;;;;;9.37;5.37;;;1.90;99.90;;;;;;10340723;28;20536;-79
2022/01/13 00:27:54;;;;;;;11.93;6.10;;;1.90;99.90;;;;;;10314422;28;20266;-79
2022/01/13 00:33:22;;;;;;;12.83;6.40;;;2.00;99.90;;;;;;10313876;28;20209;-79
2022/01/13 00:38:45;;;;;;;10.53;6.40;;;2.00;99.90;;;;;;10327273;28;20191;-81
2022/01/13 00:44:08;;;;;;;9.30;5.47;;;2.10;99.90;;;;;;10315182;28;20544;-81
2022/01/13 00:49:30;;;;;;;9.00;4.43;;;2.10;99.90;;;;;;10333914;28;20196;-81
2022/01/13 00:54:53;;;;;;;8.40;4.63;;;2.20;99.90;;;;;;10361167;28;20593;-80
2022/01/13 01:00:16;;;;;;;6.60;3.90;;;2.30;99.90;;;;;;10361663;28;20214;-81
2022/01/13 01:05:38;;;;;;;4.53;3.20;;;2.40;99.90;;;;;;10361544;28;20195;-81
2022/01/13 01:11:03;;;;;;;3.50;3.17;;;2.50;99.90;;;;;;10347304;28;20198;-80
2022/01/13 01:16:26;;;;;;;5.03;2.70;;;2.50;99.90;;;;;;10347217;28;20224;-81
2022/01/13 01:22:43;;;;;;;4.87;2.60;;;2.50;99.90;;;;;;10319330;28;20583;-81
2022/01/13 01:27:38;;;;;;;2.10;1.90;;;2.60;99.90;;;;;;10319721;28;20572;-80
2022/01/13 01:33:01;;;;;;;3.10;2.03;;;2.50;99.90;;;;;;10319911;28;20388;-80
2022/01/13 01:38:23;;;;;;;3.73;1.73;;;2.50;99.90;;;;;;10306420;28;20211;-81
2022/01/13 01:43:46;;;;;;;1.83;1.50;;;2.60;99.90;;;;;;10319484;28;20250;-80
2022/01/13 01:49:18;;;;;;;2.93;2.37;;;2.60;99.90;;;;;;10344274;28;20249;-80
2022/01/13 01:54:40;;;;;;;1.90;1.77;;;2.50;99.90;;;;;;10372697;28;20261;-79
2022/01/13 02:00:08;;;;;;;3.17;2.00;;;2.60;99.90;;;;;;10359262;28;20256;-79
2022/01/13 02:05:33;;;;;;;2.50;1.90;;;2.50;99.90;;;;;;10358749;28;20453;-79
2022/01/13 02:10:55;;;;;;;3.07;1.57;;;2.50;99.90;;;;;;10345461;28;20205;-78
2022/01/13 02:16:38;;;;;;;3.07;2.00;;;2.60;99.90;;;;;;10345301;28;20229;-81
2022/01/13 02:22:00;;;;;;;2.43;1.50;;;2.70;99.90;;;;;;10357435;28;20228;-81
2022/01/13 02:27:22;;;;;;;1.87;1.30;;;2.70;99.90;;;;;;10358201;28;20198;-80
2022/01/13 02:32:44;;;;;;;1.67;1.20;;;2.70;99.90;;;;;;10357737;28;20227;-80
2022/01/13 02:38:11;;;;;;;3.13;1.40;;;2.70;99.90;;;;;;10357845;28;20262;-80
2022/01/13 02:43:34;;;;;;;1.30;1.10;;;2.80;99.90;;;;;;10357419;28;20241;-80
2022/01/13 02:48:56;;;;;;;2.57;1.80;;;2.80;99.90;;;;;;10317973;28;20220;-80
2022/01/13 02:54:21;;;;;;;2.90;1.87;;;2.80;99.90;;;;;;10343453;28;20260;-80
2022/01/13 02:59:43;;;;;;;2.40;2.03;;;2.80;99.90;;;;;;10343819;28;20218;-81
2022/01/13 03:05:12;;;;;;;2.93;2.10;;;2.90;99.90;;;;;;10343095;28;20411;-81
2022/01/13 03:10:34;;;;;;;2.63;2.10;;;2.90;99.90;;;;;;10329274;28;20203;-81
2022/01/13 03:15:56;;;;;;;2.60;2.37;;;2.90;99.90;;;;;;10342641;28;20236;-82
2022/01/13 03:21:19;;;;;;;3.03;2.10;;;3.00;99.90;;;;;;10335428;28;20217;-81
2022/01/13 03:26:42;;;;;;;2.50;2.30;;;3.00;99.90;;;;;;10356430;28;20193;-82
2022/01/13 03:32:05;;;;;;;2.80;2.20;;;3.10;99.90;;;;;;10341978;28;20202;-80
2022/01/13 03:37:29;;;;;;;3.63;2.23;;;3.10;99.90;;;;;;10328533;28;20256;-81
2022/01/13 03:42:53;;;;;;;2.83;2.30;;;3.20;99.90;;;;;;10355277;28;20434;-80
2022/01/13 03:48:15;;;;;;;2.57;2.03;;;3.20;99.90;;;;;;10317239;28;20194;-81
2022/01/13 03:54:12;;;;;;;2.00;1.90;;;3.30;99.90;;;;;;10341336;28;20238;-79
2022/01/13 03:59:53;;;;;;;2.23;1.70;;;3.30;99.90;;;;;;10242811;29;20422;-80
2022/01/13 04:05:31;;;;;;;2.70;1.93;;;3.30;99.90;;;;;;10271757;29;20230;-81
2022/01/13 04:11:13;;;;;;;2.53;1.80;;;3.30;99.90;;;;;;10242426;29;20233;-80
2022/01/13 04:16:36;;;;;;;2.27;1.60;;;3.30;99.90;;;;;;10242011;29;20222;-80
2022/01/13 04:21:58;;;;;;;1.53;1.43;;;3.30;99.90;;;;;;10232876;29;20256;-80
2022/01/13 04:27:28;;;;;;;2.43;2.00;;;3.40;99.90;;;;;;10215925;29;20625;-79
2022/01/13 04:32:50;;;;;;;3.27;2.00;;;3.40;99.90;;;;;;10223238;28;20210;-82
2022/01/13 04:38:12;;;;;;;2.67;1.80;;;3.40;99.90;;;;;;10354135;28;20198;-80
2022/01/13 04:43:35;;;;;;;2.30;2.10;;;3.40;99.90;;;;;;10354847;28;20444;-81
2022/01/13 04:48:56;;;;;;;3.67;2.80;;;3.40;99.90;;;;;;10343272;28;20197;-81
2022/01/13 04:54:19;;;;;;;3.20;2.60;;;3.50;99.90;;;;;;10326274;28;20472;-80
2022/01/13 04:59:41;;;;;;;3.30;2.87;;;3.50;99.90;;;;;;10325977;28;20212;-80
2022/01/13 05:05:05;;;;;;;4.47;3.00;;;3.50;99.90;;;;;;10340008;28;20245;-80
2022/01/13 05:10:28;;;;;;;7.43;3.30;;;3.60;99.90;;;;;;10339990;28;20202;-80
2022/01/13 05:15:50;;;;;;;6.67;4.47;;;3.70;99.90;;;;;;10339616;28;20203;-81
2022/01/13 05:21:27;;;;;;;6.03;4.33;;;3.60;99.90;;;;;;10339720;28;20225;-80
2022/01/13 05:26:49;;;;;;;7.20;4.90;;;3.70;99.90;;;;;;10339080;28;20215;-80
2022/01/13 05:32:10;;;;;;;6.10;4.60;;;3.70;99.90;;;;;;10341864;28;20200;-80
2022/01/13 05:37:32;;;;;;;7.47;4.60;;;3.80;99.90;;;;;;10346611;28;20211;-80
2022/01/13 05:42:54;;;;;;;6.40;4.37;;;3.70;99.90;;;;;;10359462;28;20230;-79
2022/01/13 05:48:17;;;;;;;5.57;3.87;;;3.90;99.90;;;;;;10316330;28;20255;-80
2022/01/13 05:53:39;;;;;;;5.90;3.40;;;3.90;99.90;;;;;;10332099;28;20319;-80
2022/01/13 05:59:01;;;;;;;6.40;4.20;;;4.00;99.90;;;;;;10345736;28;20545;-80
2022/01/13 06:04:23;;;;;;;6.67;3.70;;;4.10;99.90;;;;;;10359057;28;20227;-80
2022/01/13 06:09:46;;;;;;;5.50;3.50;;;4.10;99.90;;;;;;10360017;28;20231;-82
2022/01/13 06:15:11;;;;;;;8.07;4.73;;;4.20;99.90;;;;;;10344551;28;20407;-81
2022/01/13 06:20:35;;;;;;;9.13;4.43;;;4.10;99.90;;;;;;10344584;28;20202;-82
2022/01/13 06:25:57;;;;;;;6.77;4.57;;;4.20;99.90;;;;;;10307059;28;20233;-81
2022/01/13 06:31:19;;;;;;;7.93;5.37;;;4.30;99.90;;;;;;10304230;28;20200;-82
2022/01/13 06:36:41;;;;;;;8.13;4.50;;;4.30;99.90;;;;;;10304146;28;20208;-82
2022/01/13 06:42:04;;;;;;;5.47;3.47;;;4.50;99.90;;;;;;10303320;28;20234;-82
2022/01/13 06:47:26;;;;;;;7.87;3.97;;;4.60;99.90;;;;;;10328862;28;20257;-82
2022/01/13 06:52:48;;;;;;;5.40;3.30;;;4.50;99.90;;;;;;10343262;28;20258;-82
2022/01/13 06:58:11;;;;;;;63.27;28.13;;;4.60;99.90;;;;;;10343132;28;20599;-82
2022/01/13 07:03:33;;;;;;;8.83;4.90;;;4.70;99.90;;;;;;10343152;28;20313;-81
2022/01/13 07:08:55;;;;;;;13.77;6.53;;;4.70;99.90;;;;;;10343072;28;20395;-82
2022/01/13 07:14:17;;;;;;;7.47;4.60;;;4.70;99.90;;;;;;10356544;28;20219;-81
2022/01/13 07:19:39;;;;;;;6.87;3.80;;;4.80;99.90;;;;;;10355900;28;20484;-81
2022/01/13 07:25:02;;;;;;;7.43;4.43;;;4.70;99.90;;;;;;10328978;28;20534;-82
2022/01/13 07:30:24;;;;;;;5.73;3.90;;;4.70;99.90;;;;;;10315697;28;20256;-81
2022/01/13 07:35:46;;;;;;;6.87;4.60;;;4.70;99.90;;;;;;10301652;28;20228;-83
2022/01/13 07:41:08;;;;;;;5.17;3.77;;;4.60;99.90;;;;;;10314816;28;20195;-83
2022/01/13 07:46:30;;;;;;;8.00;4.13;;;4.70;99.90;;;;;;10346404;28;20484;-83
2022/01/13 07:51:53;;;;;;;7.27;4.17;;;4.70;99.90;;;;;;10354577;28;20204;-79
2022/01/13 07:57:15;;;;;;;6.17;3.30;;;4.60;99.90;;;;;;10353906;28;20276;-83
2022/01/13 08:02:37;;;;;;;9.90;5.00;;;4.70;99.90;;;;;;10340871;28;20242;-82
2022/01/13 08:08:02;;;;;;;6.53;3.60;;;4.80;99.90;;;;;;10354440;28;20566;-80
2022/01/13 08:13:23;;;;;;;9.23;4.90;;;4.70;99.90;;;;;;10354768;28;20218;-81
2022/01/13 08:24:27;;;;;;;8.83;4.00;;;4.70;99.90;;;;;;10367153;28;20232;-81
2022/01/13 08:29:49;;;;;;;9.03;5.13;;;4.80;99.90;;;;;;10327077;28;20372;-81
2022/01/13 08:35:13;;;;;;;6.60;3.00;;;4.80;99.90;;;;;;10275152;28;20257;-81
2022/01/13 08:40:35;;;;;;;8.07;3.47;;;4.80;99.90;;;;;;10329220;28;20255;-79
2022/01/13 08:45:57;;;;;;;5.87;3.00;;;4.90;99.90;;;;;;10308549;28;20230;-79
2022/01/13 08:51:20;;;;;;;7.07;3.60;;;4.90;99.90;;;;;;10335025;28;20196;-80
2022/01/13 08:56:42;;;;;;;6.13;3.50;;;4.90;99.90;;;;;;10334645;28;20521;-79
2022/01/13 09:02:05;;;;;;;5.20;3.17;;;4.90;99.90;;;;;;10321418;28;20235;-79
2022/01/13 09:07:28;;;;;;;6.03;3.50;;;5.00;99.90;;;;;;10355203;28;20210;-78
2022/01/13 09:12:58;;;;;;;5.37;2.77;;;4.90;99.90;;;;;;10329938;28;20235;-79
2022/01/13 09:19:21;;;;;;;4.97;3.77;;;5.00;99.90;;;;;;10356370;28;20220;-80
2022/01/13 09:24:17;;;;;;;5.00;2.80;;;5.00;99.90;;;;;;10329640;28;20439;-80
2022/01/13 09:29:40;;;;;;;3.97;3.20;;;5.00;99.90;;;;;;10351551;28;20484;-80
2022/01/13 09:35:04;;;;;;;3.90;2.13;;;4.90;99.90;;;;;;10355349;28;20574;-79
2022/01/13 09:40:27;;;;;;;7.07;2.73;;;5.00;99.90;;;;;;10341726;28;20432;-85
2022/01/13 09:45:53;;;;;;;3.97;2.47;;;5.00;99.90;;;;;;10328956;28;20275;-84
2022/01/13 09:51:15;;;;;;;8.73;3.30;;;5.00;99.90;;;;;;10341528;28;20203;-83
2022/01/13 09:56:37;;;;;;;7.10;3.07;;;4.90;99.90;;;;;;10354357;28;20564;-81
2022/01/13 10:02:00;;;;;;;6.07;3.00;;;5.00;99.90;;;;;;10341782;28;20226;-90
2022/01/13 10:07:35;;;;;;;9.73;4.47;;;4.90;99.90;;;;;;10355492;28;20250;-84
2022/01/13 10:13:12;;;;;;;9.00;4.10;;;5.00;99.90;;;;;;10355473;28;20209;-83
2022/01/13 10:18:38;;;;;;;9.93;3.80;;;5.10;99.90;;;;;;10339015;28;20215;-82
2022/01/13 10:24:09;;;;;;;7.83;3.63;;;5.10;99.90;;;;;;10302338;28;20419;-82
2022/01/13 10:29:57;;;;;;;4.53;2.00;;;5.20;99.90;;;;;;10335928;28;20306;-83
2022/01/13 10:35:21;;;;;;;6.00;2.83;;;5.20;99.90;;;;;;10338783;28;20213;-83
2022/01/13 10:40:46;;;;;;;9.77;4.43;;;5.20;99.90;;;;;;10338208;28;20200;-83
2022/01/13 10:46:08;;;;;;;10.27;5.57;;;5.20;99.90;;;;;;10346668;28;20228;-89
2022/01/13 10:51:30;;;;;;;10.93;4.80;;;5.20;99.90;;;;;;10340026;28;20528;-87
2022/01/13 10:57:16;;;;;;;17.23;5.73;;;5.20;99.90;;;;;;10325123;28;20278;-87
2022/01/13 11:02:38;;;;;;;9.37;3.00;;;5.30;99.90;;;;;;10337962;28;20238;-87
2022/01/13 11:08:06;;;;;;;13.77;4.57;;;5.30;99.90;;;;;;10352702;28;20208;-88
2022/01/13 11:13:30;;;;;;;14.40;5.57;;;5.40;99.90;;;;;;10307454;28;20212;-88
2022/01/13 11:18:52;;;;;;;6.83;3.73;;;5.30;99.90;;;;;;10329610;28;20529;-89
2022/01/13 11:24:17;;;;;;;7.80;3.17;;;5.40;99.90;;;;;;10286611;28;20314;-90
2022/01/13 11:29:40;;;;;;;9.83;4.70;;;5.40;99.90;;;;;;10333814;28;20208;-88
2022/01/13 11:35:04;;;;;;;21.57;9.43;;;5.30;99.90;;;;;;10325725;28;20531;-88
2022/01/13 11:40:26;;;;;;;8.43;3.77;;;5.40;99.90;;;;;;10318822;28;20521;-83
2022/01/13 11:45:51;;;;;;;7.17;3.90;;;5.40;99.90;;;;;;10350696;28;20298;-90
2022/01/13 11:51:20;;;;;;;10.53;5.20;;;5.50;99.90;;;;;;10352166;28;20497;-82
2022/01/13 11:57:14;;;;;;;8.40;4.00;;;5.50;99.90;;;;;;10349403;28;20244;-85
2022/01/13 12:02:41;;;;;;;9.17;3.30;;;5.40;99.90;;;;;;10309059;28;20259;-86
2022/01/13 12:08:05;;;;;;;6.77;3.63;;;5.50;99.90;;;;;;10296068;28;20256;-83
2022/01/13 12:13:39;;;;;;;7.70;3.40;;;5.50;99.90;;;;;;10343857;28;20210;-86
2022/01/13 12:19:10;;;;;;;6.07;3.23;;;5.50;99.90;;;;;;10335434;28;20200;-83
2022/01/13 12:25:01;;;;;;;13.20;5.03;;;5.50;99.90;;;;;;10310678;28;20236;-90
2022/01/13 12:30:29;;;;;;;17.97;8.73;;;5.50;99.90;;;;;;10349304;28;20215;-83
2022/01/13 12:35:51;;;;;;;11.03;5.17;;;5.50;99.90;;;;;;10335589;28;20501;-80
2022/01/13 12:41:25;;;;;;;11.13;6.27;;;5.50;99.90;;;;;;10339014;28;20258;-89
2022/01/13 12:46:49;;;;;;;12.43;4.77;;;5.40;99.90;;;;;;10350966;28;20223;-85
2022/01/13 12:52:21;;;;;;;10.43;4.10;;;5.40;99.90;;;;;;10342116;28;20246;-84
2022/01/13 12:57:49;;;;;;;10.30;3.60;;;5.50;99.90;;;;;;10355536;28;20212;-81
2022/01/13 13:03:11;;;;;;;11.03;4.40;;;5.50;99.90;;;;;;10340842;28;20227;-80
2022/01/13 13:08:32;;;;;;;8.80;3.27;;;5.50;99.90;;;;;;10340638;28;20224;-78
2022/01/13 13:13:54;;;;;;;9.33;4.63;;;5.50;99.90;;;;;;10339069;28;20211;-77
2022/01/13 13:19:20;;;;;;;8.63;3.80;;;5.50;99.90;;;;;;10353363;28;20192;-78
2022/01/13 13:24:44;;;;;;;6.27;3.30;;;5.50;99.90;;;;;;10318516;28;20233;-80
2022/01/13 13:30:07;;;;;;;6.63;3.97;;;5.50;99.90;;;;;;10339117;28;20195;-84
2022/01/13 13:35:29;;;;;;;6.93;3.53;;;5.50;99.90;;;;;;10352169;28;20259;-75
2022/01/13 13:40:51;;;;;;;12.70;3.87;;;5.50;99.90;;;;;;10351932;28;20274;-77
2022/01/13 13:46:15;;;;;;;11.47;5.07;;;5.60;99.90;;;;;;10349779;28;20246;-83
2022/01/13 13:51:38;;;;;;;13.27;4.73;;;5.60;99.90;;;;;;10352879;28;20286;-82
2022/01/13 13:57:10;;;;;;;7.53;3.80;;;5.50;99.90;;;;;;10352244;28;20256;-82
2022/01/13 14:02:35;;;;;;;11.93;4.13;;;5.50;99.90;;;;;;10352504;28;20216;-81
2022/01/13 14:08:08;;;;;;;10.97;3.90;;;5.50;99.90;;;;;;10351577;28;20535;-83
2022/01/13 14:13:30;;;;;;;13.23;3.63;;;5.50;99.90;;;;;;10337095;28;20258;-81
2022/01/13 14:19:11;;;;;;;13.40;3.80;;;5.50;99.90;;;;;;10338299;28;20274;-80
2022/01/13 14:24:36;;;;;;;11.10;3.70;;;5.50;99.90;;;;;;10345560;28;20240;-81
2022/01/13 14:29:59;;;;;;;11.23;3.93;;;5.50;99.90;;;;;;10350168;28;20327;-85
2022/01/13 14:35:27;;;;;;;15.23;3.97;;;5.40;99.90;;;;;;10352470;28;20254;-83
2022/01/13 14:40:49;;;;;;;9.70;4.10;;;5.40;99.90;;;;;;10352766;28;20242;-83
2022/01/13 14:46:13;;;;;;;10.63;4.40;;;5.50;99.90;;;;;;10319716;28;20300;-81
2022/01/13 14:51:38;;;;;;;13.17;4.37;;;5.50;99.90;;;;;;10333981;28;20547;-83
2022/01/13 14:57:00;;;;;;;12.60;5.10;;;5.60;99.90;;;;;;10347892;28;20248;-83
2022/01/13 15:02:23;;;;;;;13.83;3.90;;;5.50;99.90;;;;;;10325238;28;20205;-86
2022/01/13 15:07:45;;;;;;;15.23;5.10;;;5.50;99.90;;;;;;10332927;28;20206;-81
2022/01/13 15:13:07;;;;;;;15.93;6.20;;;5.50;99.90;;;;;;10307824;28;20435;-81
2022/01/13 15:18:34;;;;;;;22.70;5.87;;;5.50;99.90;;;;;;10330204;28;20230;-81
2022/01/13 15:23:56;;;;;;;18.10;5.40;;;5.60;99.90;;;;;;10338043;28;20236;-80
2022/01/13 15:29:18;;;;;;;22.27;4.77;;;5.50;99.90;;;;;;10334926;28;20207;-80
2022/01/13 15:34:40;;;;;;;20.63;5.73;;;5.60;99.90;;;;;;10347605;28;20211;-81
2022/01/13 15:40:04;;;;;;;25.40;5.50;;;5.60;99.90;;;;;;10333949;28;20211;-81
2022/01/13 15:45:26;;;;;;;19.67;5.83;;;5.60;99.90;;;;;;10330180;28;20583;-80
2022/01/13 15:50:49;;;;;;;23.80;6.50;;;5.60;99.90;;;;;;10332888;28;20215;-80
2022/01/13 15:56:13;;;;;;;17.90;4.97;;;5.50;99.90;;;;;;10332297;28;20249;-81
2022/01/13 16:01:35;;;;;;;18.50;5.67;;;5.50;99.90;;;;;;10347280;28;20213;-81
2022/01/13 16:06:57;;;;;;;13.20;4.67;;;5.50;99.90;;;;;;10335605;28;20487;-81
2022/01/13 16:12:19;;;;;;;13.67;5.47;;;5.60;99.90;;;;;;10340215;28;20246;-81
2022/01/13 16:17:43;;;;;;;24.43;6.77;;;5.60;99.90;;;;;;10337420;28;20200;-83
2022/01/13 16:23:05;;;;;;;18.30;5.00;;;5.60;99.90;;;;;;10329578;28;20224;-83
2022/01/13 16:28:27;;;;;;;33.10;8.53;;;5.70;99.90;;;;;;10284550;28;20232;-81
2022/01/13 16:33:49;;;;;;;48.23;15.73;;;5.70;99.90;;;;;;10295365;28;20205;-81
2022/01/13 16:39:11;;;;;;;22.33;6.53;;;5.60;99.90;;;;;;10296561;28;20200;-81
2022/01/13 16:44:32;;;;;;;17.63;5.47;;;5.60;99.90;;;;;;10288562;28;20244;-82
2022/01/13 16:49:57;;;;;;;20.63;5.70;;;5.60;99.90;;;;;;10350961;28;20210;-81
2022/01/13 16:55:24;;;;;;;16.77;5.40;;;5.60;99.90;;;;;;10350933;28;20264;-82
2022/01/13 17:00:46;;;;;;;24.20;8.23;;;5.60;99.90;;;;;;10324099;28;20499;-82
2022/01/13 17:06:09;;;;;;;28.37;10.43;;;5.60;99.90;;;;;;10336972;28;20693;-81
2022/01/13 17:11:31;;;;;;;24.47;7.97;;;5.60;99.90;;;;;;10323903;28;20206;-81
2022/01/13 17:16:53;;;;;;;42.50;17.37;;;5.70;99.90;;;;;;10337204;28;20218;-82
2022/01/13 17:22:17;;;;;;;23.57;7.87;;;5.60;99.90;;;;;;10351486;28;20209;-83
2022/01/13 17:27:40;;;;;;;18.30;5.90;;;5.60;99.90;;;;;;10355051;28;20270;-80
2022/01/13 17:33:03;;;;;;;27.20;10.30;;;5.60;99.90;;;;;;10357560;28;20241;-82
2022/01/13 17:38:27;;;;;;;24.00;7.10;;;5.70;99.90;;;;;;10344251;28;20233;-81
2022/01/13 17:43:49;;;;;;;29.60;8.37;;;5.70;99.90;;;;;;10357113;28;20238;-81
2022/01/13 17:49:11;;;;;;;21.93;7.53;;;5.70;99.90;;;;;;10356818;28;20196;-82
2022/01/13 17:54:34;;;;;;;26.17;6.90;;;5.70;99.90;;;;;;10343588;28;20252;-81
2022/01/13 17:59:57;;;;;;;28.10;8.07;;;5.80;99.90;;;;;;10343517;28;20252;-81
2022/01/13 18:05:31;;;;;;;24.73;8.87;;;5.80;99.90;;;;;;10344502;28;20303;-82
2022/01/13 18:10:55;;;;;;;15.47;5.83;;;5.90;99.90;;;;;;10356315;28;20288;-81
2022/01/13 18:16:18;;;;;;;22.67;4.87;;;5.80;99.90;;;;;;10356111;28;20204;-81
2022/01/13 18:21:40;;;;;;;11.70;4.53;;;5.90;99.90;;;;;;10334902;28;20253;-81
2022/01/13 18:27:02;;;;;;;15.50;5.70;;;5.90;99.90;;;;;;10318178;28;20458;-81
2022/01/13 18:32:24;;;;;;;20.90;6.07;;;5.90;99.90;;;;;;10304230;28;20251;-80
2022/01/13 18:37:46;;;;;;;12.93;3.30;;;6.00;99.90;;;;;;10301073;28;20213;-82
2022/01/13 18:43:09;;;;;;;15.10;4.03;;;6.00;99.90;;;;;;10314752;28;20224;-82
2022/01/13 18:48:31;;;;;;;9.00;2.80;;;6.00;99.90;;;;;;10314933;28;20423;-82
2022/01/13 18:53:53;;;;;;;11.60;2.90;;;6.00;99.90;;;;;;10315566;28;20287;-82
2022/01/13 18:59:15;;;;;;;17.43;4.43;;;6.10;99.90;;;;;;10324163;28;20399;-80
2022/01/13 19:04:37;;;;;;;14.77;4.83;;;6.00;99.90;;;;;;10342042;28;20231;-81
2022/01/13 19:09:59;;;;;;;14.70;3.97;;;6.00;99.90;;;;;;10354150;28;20204;-83
2022/01/13 19:15:21;;;;;;;19.07;4.93;;;6.10;99.90;;;;;;10354035;28;20201;-79
2022/01/13 19:20:45;;;;;;;12.77;4.07;;;6.20;99.90;;;;;;10340278;28;20208;-81
2022/01/13 19:26:07;;;;;;;10.43;3.57;;;6.10;99.90;;;;;;10320219;28;20224;-80
2022/01/13 19:31:30;;;;;;;13.00;4.07;;;6.20;99.90;;;;;;10299694;28;20200;-80
2022/01/13 19:36:53;;;;;;;14.77;4.20;;;6.20;99.90;;;;;;10299247;28;20209;-81
2022/01/13 19:42:16;;;;;;;12.57;3.33;;;6.10;99.90;;;;;;10298949;28;20199;-80
2022/01/13 19:47:39;;;;;;;8.30;2.57;;;6.20;99.90;;;;;;10308613;28;20247;-81
2022/01/13 19:53:12;;;;;;;8.70;2.90;;;6.20;99.90;;;;;;10311607;28;20212;-80
2022/01/13 19:58:36;;;;;;;10.97;2.63;;;6.10;99.90;;;;;;10311876;28;20582;-80
2022/01/13 20:03:58;;;;;;;10.47;2.80;;;6.10;99.90;;;;;;10312993;28;20229;-80
2022/01/13 20:09:20;;;;;;;12.17;3.63;;;6.20;99.90;;;;;;10311815;28;20205;-80
2022/01/13 20:14:43;;;;;;;9.90;3.33;;;6.10;99.90;;;;;;10297077;28;20199;-80
2022/01/13 20:20:09;;;;;;;5.77;1.93;;;6.00;99.90;;;;;;10352547;28;20208;-79
2022/01/13 20:25:32;;;;;;;8.43;2.83;;;6.10;99.90;;;;;;10351491;28;20232;-79
2022/01/13 20:30:54;;;;;;;9.07;2.87;;;6.10;99.90;;;;;;10351277;28;20226;-80
2022/01/13 20:36:16;;;;;;;10.90;2.90;;;6.10;99.90;;;;;;10351670;28;20502;-80
2022/01/13 20:41:38;;;;;;;7.80;3.53;;;6.00;99.90;;;;;;10364767;28;20189;-80
2022/01/13 20:47:00;;;;;;;10.47;3.57;;;6.10;99.90;;;;;;10337221;28;20252;-81
2022/01/13 20:52:22;;;;;;;11.57;3.07;;;5.90;99.90;;;;;;10337783;28;20223;-80
2022/01/13 20:57:44;;;;;;;6.60;2.63;;;5.90;99.90;;;;;;10336720;28;20233;-80
2022/01/13 21:03:07;;;;;;;8.97;2.40;;;6.00;99.90;;;;;;10318298;28;20225;-79
2022/01/13 21:08:31;;;;;;;10.40;3.07;;;5.90;99.90;;;;;;10319583;28;20426;-80
2022/01/13 21:13:55;;;;;;;11.70;3.23;;;5.90;99.90;;;;;;10338809;28;20402;-80
2022/01/13 21:19:16;;;;;;;10.67;3.10;;;5.80;99.90;;;;;;10343867;28;20278;-80
2022/01/13 21:24:38;;;;;;;16.80;3.37;;;5.80;99.90;;;;;;10344188;28;20255;-80
2022/01/13 21:30:01;;;;;;;8.77;3.13;;;5.80;99.90;;;;;;10358298;28;20262;-81
2022/01/13 21:35:24;;;;;;;9.73;2.63;;;5.80;99.90;;;;;;10344558;28;20213;-79
2022/01/13 21:40:46;;;;;;;8.33;3.07;;;5.80;99.90;;;;;;10357617;28;20193;-81
2022/01/13 21:46:11;;;;;;;9.57;3.33;;;5.70;99.90;;;;;;10357191;28;20282;-81
2022/01/13 21:51:33;;;;;;;11.70;2.93;;;5.70;99.90;;;;;;10329732;28;20205;-79
2022/01/13 21:56:55;;;;;;;11.70;3.00;;;5.70;99.90;;;;;;10343166;28;20254;-81
2022/01/13 22:02:18;;;;;;;16.10;3.23;;;5.60;99.90;;;;;;10357064;28;20192;-80
2022/01/13 22:07:40;;;;;;;8.87;3.30;;;5.60;99.90;;;;;;10356503;28;20244;-82
2022/01/13 22:13:02;;;;;;;8.23;3.00;;;5.50;99.90;;;;;;10355617;28;20200;-80
2022/01/13 22:18:24;;;;;;;16.67;4.17;;;5.50;99.90;;;;;;10342522;28;20261;-81
2022/01/13 22:23:46;;;;;;;9.93;2.80;;;5.50;99.90;;;;;;10355353;28;20224;-80
2022/01/13 22:29:09;;;;;;;13.50;2.70;;;5.50;99.90;;;;;;10342460;28;20454;-81
2022/01/13 22:34:30;;;;;;;12.97;3.10;;;5.40;99.90;;;;;;10341994;28;20199;-80
2022/01/13 22:39:54;;;;;;;8.80;3.00;;;5.40;99.90;;;;;;10341774;28;20208;-80
2022/01/13 22:45:17;;;;;;;14.43;2.67;;;5.40;99.90;;;;;;10327923;28;20226;-81
2022/01/13 22:50:39;;;;;;;10.57;2.77;;;5.40;99.90;;;;;;10354753;28;20199;-81
2022/01/13 22:56:03;;;;;;;10.40;2.90;;;5.40;99.90;;;;;;10340939;28;20235;-80
2022/01/13 23:01:26;;;;;;;11.73;3.13;;;5.40;99.90;;;;;;10354655;28;20396;-81
2022/01/13 23:06:49;;;;;;;14.43;3.47;;;5.40;99.90;;;;;;10354306;28;20530;-80
2022/01/13 23:12:13;;;;;;;10.90;2.87;;;5.40;99.90;;;;;;10354798;28;20201;-80
2022/01/13 23:23:15;;;;;;;9.17;2.50;;;5.30;99.90;;;;;;10352936;28;20207;-80
2022/01/13 23:28:37;;;;;;;7.97;2.83;;;5.30;99.90;;;;;;10354400;28;20206;-80
2022/01/13 23:33:59;;;;;;;10.83;2.40;;;5.40;99.90;;;;;;10353828;28;20198;-78
2022/01/13 23:39:21;;;;;;;7.17;1.87;;;5.40;99.90;;;;;;10353035;28;20194;-80
2022/01/13 23:44:46;;;;;;;5.83;2.03;;;5.40;99.90;;;;;;10353840;28;20227;-80
2022/01/13 23:50:09;;;;;;;8.17;1.80;;;5.30;99.90;;;;;;10352428;28;20222;-79
2022/01/13 23:55:31;;;;;;;5.87;1.80;;;5.40;99.90;;;;;;10352539;28;20234;-78
